Аэропорт: Днепропетровск. Днепропетровск

ICAO: UKDD

METAR:
2020-06-01 01:00:00
UKDD 010100Z 23002MPS 180V270 CAVOK 11/10 Q1008 R26/090070 NOSIG
METAR:
2020-05-31 23:01:00
TAF UKDD 312301Z 0100/0124 24005MPS 9999 SCT020CB BKN030 TEMPO 0108/0121 VRB10G16MPS 1100 TSRA SQ SCT005 BKN020CB